Flight Track Log - Related Links

Times and Time Zones

All times are in EDT time to prevent confusion due to time zone crossing. See the DAL6234 flight status page for this flight to view local times or setup timezone preferences in your user account.

Time Position Orientation Groundspeed Altitude Reporting Facility
EDT Latitude Longitude Course Direction KTS MPH feet Rate Location/Type
Mon 04:12:59 PM 40.7500 -73.8333 313° West 187 215 1,900  Level New York TRACON
Mon 04:13:59 PM 40.7500 -73.7667 90° East 231 266 4,300 2,400 Climbing New York TRACON
Mon 04:14:59 PM 40.8167 -73.7167 30° Northeast 263 303 6,700 2,500 Climbing New York TRACON
Mon 04:15:59 PM 40.8833 -73.7333 349° North 279 321 9,300 2,316 Climbing New York TRACON
Mon 04:16:53 PM 40.9167 -73.8167 298° West 274 315 11,100 2,105 Climbing New York TRACON
Mon 04:17:53 PM 40.9500 -73.9167 294° West 327 376 13,300 2,150 Climbing New York TRACON
Mon 04:18:00 PM 41.0698 -74.3353 313° West  Level FlightAware Approximate
Mon 04:18:53 PM 41.0000 -74.0333 300° West 341 392 15,400  Level New York TRACON
Mon 04:19:53 PM 41.0500 -74.1500 300° West 377 434 16,000 350 Climbing New York TRACON
Mon 04:20:53 PM 41.1000 -74.2667 300° West 384 442 16,100  Climbing New York TRACON
Mon 04:21:41 PM 41.1422 -74.3692 299° West 396 456 16,000 -55 Descending New York Center
Mon 04:22:42 PM 41.1886 -74.4819 299° West 396 456 16,000  Level New York Center
Mon 04:23:42 PM 41.2511 -74.6153 302° West 396 456 16,000 458 Level New York Center
Mon 04:24:40 PM 41.3122 -74.7153 309° West 389 448 16,900 1,250 Climbing New York Center
Mon 04:25:42 PM 41.3914 -74.8389 311° West 395 455 18,500 1,488 Climbing New York Center
Mon 04:26:41 PM 41.4567 -74.9425 310° West 400 460 19,900 1,550 Climbing New York Center
Mon 04:27:42 PM 41.5275 -75.0578 309° West 405 466 21,600 1,050 Climbing New York Center
Mon 04:28:41 PM 41.6000 -75.1789 309° West 405 466 22,000 200 Climbing New York Center
Mon 04:29:42 PM 41.6706 -75.2975 309° West 411 473 22,000  Level New York Center
Mon 04:30:42 PM 41.7428 -75.4217 308° West 417 480 22,000  Level New York Center
Mon 04:31:42 PM 41.8150 -75.5408 309° West 417 480 22,000  Level New York Center
Mon 04:32:42 PM 41.8853 -75.6603 308° West 412 474 22,000 -694 Level New York Center
Mon 04:33:43 PM 41.9625 -75.7997 307° West 412 474 20,600 -1,750 Descending New York Center
Mon 04:34:42 PM 42.0283 -75.9164 307° West 412 474 18,500 -2,103 Descending New York Center
Mon 04:35:40 PM 42.0964 -76.0308 309° West 400 460 16,500 -1,966 Descending New York Center
Mon 04:36:41 PM 42.1733 -76.1236 318° Northwest 373 429 14,600 -1,934 Descending New York Center
Mon 04:37:41 PM 42.2836 -76.1269 359° North 353 406 12,600 -1,978 Descending New York Center
Mon 04:38:12 PM 42.3408 -76.1200 North 400 460 11,600 -1,343 Descending Boston Center
Mon 04:38:48 PM 42.4056 -76.1100 North 379 436 11,100 -375 Descending Boston Center
Mon 04:39:48 PM 42.4978 -76.1011 North 315 362 11,000 -99 Descending Boston Center
Mon 04:40:49 PM 42.5792 -76.0919 North 304 350 10,900 -730 Descending Boston Center
Mon 04:41:43 PM 42.6567 -76.0853 North 301 346 9,600 -1,565 Descending Boston Center
Mon 04:42:44 PM 42.7350 -76.1125 346° North 282 325 7,900 -1,736 Descending Boston Center
Mon 04:43:44 PM 42.8050 -76.1392 344° North 268 308 6,100 -1,785 Descending Boston Center
Mon 04:44:45 PM 42.8750 -76.1661 344° North 262 302 4,300 -984 Descending Boston Center
Mon 04:45:46 PM 42.9453 -76.1903 346° North 254 292 4,100 -344 Descending Boston Center
Mon 04:46:47 PM 43.0089 -76.2142 345° North 239 275 3,600 -744 Descending Boston Center
Mon 04:47:47 PM 43.0689 -76.2347 346° North 210 242 2,600 -850 Descending Boston Center
Mon 04:48:47 PM 43.1047 -76.2228 14° North 140 161 1,900 -793 Descending Boston Center
Mon 04:49:48 PM 43.1064 -76.1658 88° East 124 143 1,000 -885 Descending Boston Center

Login

Don't have an account? Register now (free) for customized features, flight alerts, and more!